sensor_id;sensor_type;location;lat;lon;timestamp;temperature;humidity
35645;DHT22;21764;52.042;6.830;2023-05-10T00:00:00;14.80;99.90
35645;DHT22;21764;52.042;6.830;2023-05-10T00:05:01;14.70;99.90
35645;DHT22;21764;52.042;6.830;2023-05-10T00:10:02;14.60;99.90
35645;DHT22;21764;52.042;6.830;2023-05-10T00:15:03;14.50;99.90
35645;DHT22;21764;52.042;6.830;2023-05-10T00:20:04;14.40;99.90
35645;DHT22;21764;52.042;6.830;2023-05-10T00:25:06;14.30;99.90
35645;DHT22;21764;52.042;6.830;2023-05-10T00:30:07;14.10;99.90
35645;DHT22;21764;52.042;6.830;2023-05-10T00:35:08;14.00;99.90
35645;DHT22;21764;52.042;6.830;2023-05-10T00:40:09;13.90;99.90
35645;DHT22;21764;52.042;6.830;2023-05-10T00:45:10;13.90;99.90
35645;DHT22;21764;52.042;6.830;2023-05-10T00:50:12;13.90;99.90
35645;DHT22;21764;52.042;6.830;2023-05-10T00:55:12;13.90;99.90
35645;DHT22;21764;52.042;6.830;2023-05-10T01:00:13;13.80;99.90
35645;DHT22;21764;52.042;6.830;2023-05-10T01:05:18;13.80;99.90
35645;DHT22;21764;52.042;6.830;2023-05-10T01:16:16;13.70;99.90
35645;DHT22;21764;52.042;6.830;2023-05-10T01:21:19;13.80;99.90
35645;DHT22;21764;52.042;6.830;2023-05-10T01:26:39;13.70;99.90
35645;DHT22;21764;52.042;6.830;2023-05-10T01:37:13;13.70;99.90
35645;DHT22;21764;52.042;6.830;2023-05-10T01:42:23;13.70;99.90
35645;DHT22;21764;52.042;6.830;2023-05-10T01:52:37;13.70;99.90
35645;DHT22;21764;52.042;6.830;2023-05-10T01:57:40;13.70;99.90
35645;DHT22;21764;52.042;6.830;2023-05-10T02:02:45;13.60;99.90
35645;DHT22;21764;52.042;6.830;2023-05-10T02:07:47;13.60;99.90
35645;DHT22;21764;52.042;6.830;2023-05-10T02:12:49;13.70;99.90
35645;DHT22;21764;52.042;6.830;2023-05-10T02:17:53;13.70;99.90
35645;DHT22;21764;52.042;6.830;2023-05-10T02:22:56;13.70;99.90
35645;DHT22;21764;52.042;6.830;2023-05-10T02:27:58;13.70;99.90
35645;DHT22;21764;52.042;6.830;2023-05-10T02:33:01;13.60;99.90
35645;DHT22;21764;52.042;6.830;2023-05-10T02:38:04;13.70;99.90
35645;DHT22;21764;52.042;6.830;2023-05-10T02:43:06;13.70;99.90
35645;DHT22;21764;52.042;6.830;2023-05-10T02:48:09;13.80;99.90
35645;DHT22;21764;52.042;6.830;2023-05-10T02:53:13;13.80;99.90
35645;DHT22;21764;52.042;6.830;2023-05-10T02:58:15;13.80;99.90
35645;DHT22;21764;52.042;6.830;2023-05-10T03:03:16;13.80;99.90
35645;DHT22;21764;52.042;6.830;2023-05-10T03:08:17;13.90;99.90
35645;DHT22;21764;52.042;6.830;2023-05-10T03:19:06;13.80;99.90
35645;DHT22;21764;52.042;6.830;2023-05-10T03:24:09;13.80;99.90
35645;DHT22;21764;52.042;6.830;2023-05-10T03:29:13;13.80;99.90
35645;DHT22;21764;52.042;6.830;2023-05-10T03:34:14;13.80;99.90
35645;DHT22;21764;52.042;6.830;2023-05-10T03:39:15;13.80;99.90
35645;DHT22;21764;52.042;6.830;2023-05-10T03:44:16;13.70;99.90
35645;DHT22;21764;52.042;6.830;2023-05-10T03:49:17;13.70;99.90
35645;DHT22;21764;52.042;6.830;2023-05-10T03:54:17;13.70;99.90
35645;DHT22;21764;52.042;6.830;2023-05-10T03:59:18;13.70;99.90
35645;DHT22;21764;52.042;6.830;2023-05-10T04:04:19;13.80;99.90
35645;DHT22;21764;52.042;6.830;2023-05-10T04:09:21;13.80;99.90
35645;DHT22;21764;52.042;6.830;2023-05-10T04:14:21;13.80;99.90
35645;DHT22;21764;52.042;6.830;2023-05-10T04:19:22;13.80;99.90
35645;DHT22;21764;52.042;6.830;2023-05-10T04:24:23;13.90;99.90
35645;DHT22;21764;52.042;6.830;2023-05-10T04:29:23;13.80;99.90
35645;DHT22;21764;52.042;6.830;2023-05-10T04:34:24;13.80;99.90
35645;DHT22;21764;52.042;6.830;2023-05-10T04:39:25;13.90;99.90
35645;DHT22;21764;52.042;6.830;2023-05-10T04:44:26;13.90;99.90
35645;DHT22;21764;52.042;6.830;2023-05-10T04:49:26;13.90;99.90
35645;DHT22;21764;52.042;6.830;2023-05-10T04:54:27;13.90;99.90
35645;DHT22;21764;52.042;6.830;2023-05-10T04:59:28;14.00;99.90
35645;DHT22;21764;52.042;6.830;2023-05-10T05:04:29;14.00;99.90
35645;DHT22;21764;52.042;6.830;2023-05-10T05:09:30;14.00;99.90
35645;DHT22;21764;52.042;6.830;2023-05-10T05:14:32;14.10;99.90
35645;DHT22;21764;52.042;6.830;2023-05-10T05:19:32;14.30;99.90
35645;DHT22;21764;52.042;6.830;2023-05-10T05:24:37;14.40;99.90
35645;DHT22;21764;52.042;6.830;2023-05-10T05:29:40;14.60;99.90
35645;DHT22;21764;52.042;6.830;2023-05-10T05:34:41;14.80;99.90
35645;DHT22;21764;52.042;6.830;2023-05-10T05:39:42;14.80;99.90
35645;DHT22;21764;52.042;6.830;2023-05-10T05:44:43;14.90;99.90
35645;DHT22;21764;52.042;6.830;2023-05-10T05:49:43;14.80;99.90
35645;DHT22;21764;52.042;6.830;2023-05-10T05:54:47;14.70;99.90
35645;DHT22;21764;52.042;6.830;2023-05-10T05:59:48;14.60;99.90
35645;DHT22;21764;52.042;6.830;2023-05-10T06:04:48;14.70;99.90
35645;DHT22;21764;52.042;6.830;2023-05-10T06:09:49;14.70;99.90
35645;DHT22;21764;52.042;6.830;2023-05-10T06:14:50;14.70;99.90
35645;DHT22;21764;52.042;6.830;2023-05-10T06:19:50;14.90;99.90
35645;DHT22;21764;52.042;6.830;2023-05-10T06:24:51;15.10;99.90
35645;DHT22;21764;52.042;6.830;2023-05-10T06:29:52;15.30;99.90
35645;DHT22;21764;52.042;6.830;2023-05-10T06:34:52;15.30;99.90
35645;DHT22;21764;52.042;6.830;2023-05-10T06:39:53;15.70;99.90
35645;DHT22;21764;52.042;6.830;2023-05-10T06:44:53;16.20;99.90
35645;DHT22;21764;52.042;6.830;2023-05-10T06:49:54;16.40;99.90
35645;DHT22;21764;52.042;6.830;2023-05-10T06:54:56;16.70;99.90
35645;DHT22;21764;52.042;6.830;2023-05-10T06:59:57;16.80;99.90
35645;DHT22;21764;52.042;6.830;2023-05-10T07:04:57;16.90;99.90
35645;DHT22;21764;52.042;6.830;2023-05-10T07:09:58;16.90;99.90
35645;DHT22;21764;52.042;6.830;2023-05-10T07:14:59;16.90;99.90
35645;DHT22;21764;52.042;6.830;2023-05-10T07:20:00;16.70;99.90
35645;DHT22;21764;52.042;6.830;2023-05-10T07:25:01;17.00;99.90
35645;DHT22;21764;52.042;6.830;2023-05-10T07:30:03;17.40;99.90
35645;DHT22;21764;52.042;6.830;2023-05-10T07:35:03;17.40;99.90
35645;DHT22;21764;52.042;6.830;2023-05-10T07:40:05;16.80;99.90
35645;DHT22;21764;52.042;6.830;2023-05-10T07:45:07;16.40;99.90
35645;DHT22;21764;52.042;6.830;2023-05-10T07:50:08;16.00;99.90
35645;DHT22;21764;52.042;6.830;2023-05-10T07:55:09;16.00;99.90
35645;DHT22;21764;52.042;6.830;2023-05-10T08:00:12;16.00;99.90
35645;DHT22;21764;52.042;6.830;2023-05-10T08:05:13;16.10;99.90
35645;DHT22;21764;52.042;6.830;2023-05-10T08:10:14;16.50;99.90
35645;DHT22;21764;52.042;6.830;2023-05-10T08:15:15;16.40;99.90
35645;DHT22;21764;52.042;6.830;2023-05-10T08:20:16;16.20;99.90
35645;DHT22;21764;52.042;6.830;2023-05-10T08:25:19;16.20;99.90
35645;DHT22;21764;52.042;6.830;2023-05-10T08:30:19;16.40;99.90
35645;DHT22;21764;52.042;6.830;2023-05-10T08:35:20;16.40;99.90
35645;DHT22;21764;52.042;6.830;2023-05-10T08:40:21;16.60;99.90
35645;DHT22;21764;52.042;6.830;2023-05-10T08:45:23;16.50;99.90
35645;DHT22;21764;52.042;6.830;2023-05-10T08:50:25;16.70;99.90
35645;DHT22;21764;52.042;6.830;2023-05-10T08:55:26;16.90;99.90
35645;DHT22;21764;52.042;6.830;2023-05-10T09:00:28;17.00;99.90
35645;DHT22;21764;52.042;6.830;2023-05-10T09:05:29;17.40;99.90
35645;DHT22;21764;52.042;6.830;2023-05-10T09:10:30;17.80;99.90
35645;DHT22;21764;52.042;6.830;2023-05-10T09:15:31;17.60;99.90
35645;DHT22;21764;52.042;6.830;2023-05-10T09:20:32;16.80;99.90
35645;DHT22;21764;52.042;6.830;2023-05-10T09:25:33;16.60;99.90
35645;DHT22;21764;52.042;6.830;2023-05-10T09:30:35;16.70;99.90
35645;DHT22;21764;52.042;6.830;2023-05-10T09:35:35;16.90;99.90
35645;DHT22;21764;52.042;6.830;2023-05-10T09:40:36;17.20;99.90
35645;DHT22;21764;52.042;6.830;2023-05-10T09:45:38;17.70;99.90
35645;DHT22;21764;52.042;6.830;2023-05-10T09:50:41;18.40;99.90
35645;DHT22;21764;52.042;6.830;2023-05-10T09:55:44;18.90;99.90
35645;DHT22;21764;52.042;6.830;2023-05-10T10:00:47;19.10;99.90
35645;DHT22;21764;52.042;6.830;2023-05-10T10:05:51;19.20;99.90
35645;DHT22;21764;52.042;6.830;2023-05-10T10:10:53;19.40;99.90
35645;DHT22;21764;52.042;6.830;2023-05-10T10:15:54;19.60;99.70
35645;DHT22;21764;52.042;6.830;2023-05-10T10:20:56;19.90;99.20
35645;DHT22;21764;52.042;6.830;2023-05-10T10:25:57;20.00;98.80
35645;DHT22;21764;52.042;6.830;2023-05-10T10:31:11;20.50;98.10
35645;DHT22;21764;52.042;6.830;2023-05-10T10:36:15;21.00;96.80
35645;DHT22;21764;52.042;6.830;2023-05-10T10:41:35;21.80;94.80
35645;DHT22;21764;52.042;6.830;2023-05-10T10:57:28;22.90;92.40
35645;DHT22;21764;52.042;6.830;2023-05-10T11:02:36;23.80;90.60
35645;DHT22;21764;52.042;6.830;2023-05-10T11:07:57;24.20;89.30
35645;DHT22;21764;52.042;6.830;2023-05-10T11:13:05;25.10;87.20
35645;DHT22;21764;52.042;6.830;2023-05-10T11:18:28;23.70;87.30
35645;DHT22;21764;52.042;6.830;2023-05-10T11:28:47;19.30;95.00
35645;DHT22;21764;52.042;6.830;2023-05-10T11:33:52;18.50;97.30
35645;DHT22;21764;52.042;6.830;2023-05-10T11:38:54;18.00;98.60
35645;DHT22;21764;52.042;6.830;2023-05-10T11:43:56;17.70;99.70
35645;DHT22;21764;52.042;6.830;2023-05-10T11:49:00;17.40;99.90
35645;DHT22;21764;52.042;6.830;2023-05-10T11:54:06;17.40;99.90
35645;DHT22;21764;52.042;6.830;2023-05-10T11:59:08;17.40;99.90
35645;DHT22;21764;52.042;6.830;2023-05-10T12:04:09;17.50;99.90
35645;DHT22;21764;52.042;6.830;2023-05-10T12:09:09;17.90;99.90
35645;DHT22;21764;52.042;6.830;2023-05-10T12:14:10;18.20;99.90
35645;DHT22;21764;52.042;6.830;2023-05-10T12:19:11;18.80;99.60
35645;DHT22;21764;52.042;6.830;2023-05-10T12:24:12;19.50;98.30
35645;DHT22;21764;52.042;6.830;2023-05-10T12:29:18;19.90;98.00
35645;DHT22;21764;52.042;6.830;2023-05-10T12:34:33;20.70;97.10
35645;DHT22;21764;52.042;6.830;2023-05-10T12:39:44;20.70;95.60
35645;DHT22;21764;52.042;6.830;2023-05-10T12:44:46;19.60;96.80
35645;DHT22;21764;52.042;6.830;2023-05-10T12:49:46;18.80;98.00
35645;DHT22;21764;52.042;6.830;2023-05-10T12:54:47;18.40;98.50
35645;DHT22;21764;52.042;6.830;2023-05-10T12:59:48;18.20;99.60
35645;DHT22;21764;52.042;6.830;2023-05-10T13:04:49;18.20;99.40
35645;DHT22;21764;52.042;6.830;2023-05-10T13:09:49;18.50;98.80
35645;DHT22;21764;52.042;6.830;2023-05-10T13:14:50;19.30;97.20
35645;DHT22;21764;52.042;6.830;2023-05-10T13:19:51;20.00;94.90
35645;DHT22;21764;52.042;6.830;2023-05-10T13:24:52;21.00;94.00
35645;DHT22;21764;52.042;6.830;2023-05-10T13:29:52;21.70;93.10
35645;DHT22;21764;52.042;6.830;2023-05-10T13:34:54;21.30;92.50
35645;DHT22;21764;52.042;6.830;2023-05-10T13:39:55;21.00;92.80
35645;DHT22;21764;52.042;6.830;2023-05-10T13:44:55;21.00;92.00
35645;DHT22;21764;52.042;6.830;2023-05-10T13:49:56;21.70;91.70
35645;DHT22;21764;52.042;6.830;2023-05-10T13:54:58;21.90;90.30
35645;DHT22;21764;52.042;6.830;2023-05-10T13:59:58;21.80;90.10
35645;DHT22;21764;52.042;6.830;2023-05-10T14:04:59;21.80;89.40
35645;DHT22;21764;52.042;6.830;2023-05-10T14:10:00;21.60;88.70
35645;DHT22;21764;52.042;6.830;2023-05-10T14:15:01;21.10;88.70
35645;DHT22;21764;52.042;6.830;2023-05-10T14:20:03;21.30;88.30
35645;DHT22;21764;52.042;6.830;2023-05-10T14:25:04;21.40;88.00
35645;DHT22;21764;52.042;6.830;2023-05-10T14:30:05;21.10;88.30
35645;DHT22;21764;52.042;6.830;2023-05-10T14:35:06;20.70;88.50
35645;DHT22;21764;52.042;6.830;2023-05-10T14:40:08;21.00;88.70
35645;DHT22;21764;52.042;6.830;2023-05-10T14:45:10;20.90;87.30
35645;DHT22;21764;52.042;6.830;2023-05-10T14:50:11;21.00;87.20
35645;DHT22;21764;52.042;6.830;2023-05-10T14:55:11;21.20;87.30
35645;DHT22;21764;52.042;6.830;2023-05-10T15:00:13;20.80;86.90
35645;DHT22;21764;52.042;6.830;2023-05-10T15:05:15;21.00;88.60
35645;DHT22;21764;52.042;6.830;2023-05-10T15:10:17;20.90;88.20
35645;DHT22;21764;52.042;6.830;2023-05-10T15:15:18;21.10;88.10
35645;DHT22;21764;52.042;6.830;2023-05-10T15:20:19;21.10;86.60
35645;DHT22;21764;52.042;6.830;2023-05-10T15:25:19;20.80;87.60
35645;DHT22;21764;52.042;6.830;2023-05-10T15:30:20;20.80;87.60
35645;DHT22;21764;52.042;6.830;2023-05-10T15:35:21;20.80;87.10
35645;DHT22;21764;52.042;6.830;2023-05-10T15:40:22;20.70;84.90
35645;DHT22;21764;52.042;6.830;2023-05-10T15:45:23;20.60;87.40
35645;DHT22;21764;52.042;6.830;2023-05-10T15:50:23;20.50;88.90
35645;DHT22;21764;52.042;6.830;2023-05-10T15:55:25;20.50;90.30
35645;DHT22;21764;52.042;6.830;2023-05-10T16:00:26;20.20;90.10
35645;DHT22;21764;52.042;6.830;2023-05-10T16:05:26;20.10;90.40
35645;DHT22;21764;52.042;6.830;2023-05-10T16:10:31;20.20;90.40
35645;DHT22;21764;52.042;6.830;2023-05-10T16:15:32;20.40;88.40
35645;DHT22;21764;52.042;6.830;2023-05-10T16:20:33;20.70;87.20
35645;DHT22;21764;52.042;6.830;2023-05-10T16:25:34;20.80;86.50
35645;DHT22;21764;52.042;6.830;2023-05-10T16:30:35;20.60;87.40
35645;DHT22;21764;52.042;6.830;2023-05-10T16:35:35;20.30;88.90
35645;DHT22;21764;52.042;6.830;2023-05-10T16:40:38;19.80;89.90
35645;DHT22;21764;52.042;6.830;2023-05-10T16:45:39;19.50;90.10
35645;DHT22;21764;52.042;6.830;2023-05-10T16:50:42;19.30;91.20
35645;DHT22;21764;52.042;6.830;2023-05-10T16:55:43;19.10;91.20
35645;DHT22;21764;52.042;6.830;2023-05-10T17:00:44;18.90;91.30
35645;DHT22;21764;52.042;6.830;2023-05-10T17:05:45;18.90;91.80
35645;DHT22;21764;52.042;6.830;2023-05-10T17:10:45;18.70;92.90
35645;DHT22;21764;52.042;6.830;2023-05-10T17:15:46;18.40;95.00
35645;DHT22;21764;52.042;6.830;2023-05-10T17:20:47;18.20;95.80
35645;DHT22;21764;52.042;6.830;2023-05-10T17:25:48;18.00;96.00
35645;DHT22;21764;52.042;6.830;2023-05-10T17:30:55;17.90;96.10
35645;DHT22;21764;52.042;6.830;2023-05-10T17:35:56;18.00;96.10
35645;DHT22;21764;52.042;6.830;2023-05-10T17:40:57;17.90;96.10
35645;DHT22;21764;52.042;6.830;2023-05-10T17:45:58;18.00;96.20
35645;DHT22;21764;52.042;6.830;2023-05-10T17:50:58;17.80;96.10
35645;DHT22;21764;52.042;6.830;2023-05-10T17:55:59;17.60;96.70
35645;DHT22;21764;52.042;6.830;2023-05-10T18:01:01;17.30;97.30
35645;DHT22;21764;52.042;6.830;2023-05-10T18:06:02;17.30;97.30
35645;DHT22;21764;52.042;6.830;2023-05-10T18:11:03;17.20;97.40
35645;DHT22;21764;52.042;6.830;2023-05-10T18:16:04;17.10;97.70
35645;DHT22;21764;52.042;6.830;2023-05-10T18:21:07;16.90;98.00
35645;DHT22;21764;52.042;6.830;2023-05-10T18:26:08;16.70;98.50
35645;DHT22;21764;52.042;6.830;2023-05-10T18:31:11;16.70;98.90
35645;DHT22;21764;52.042;6.830;2023-05-10T18:36:15;16.50;99.20
35645;DHT22;21764;52.042;6.830;2023-05-10T18:41:16;16.40;99.70
35645;DHT22;21764;52.042;6.830;2023-05-10T18:46:18;16.20;99.90
35645;DHT22;21764;52.042;6.830;2023-05-10T18:51:18;16.10;99.90
35645;DHT22;21764;52.042;6.830;2023-05-10T18:56:20;16.10;99.90
35645;DHT22;21764;52.042;6.830;2023-05-10T19:01:21;16.00;99.90
35645;DHT22;21764;52.042;6.830;2023-05-10T19:06:22;15.90;99.90
35645;DHT22;21764;52.042;6.830;2023-05-10T19:11:23;15.80;99.90
35645;DHT22;21764;52.042;6.830;2023-05-10T19:16:23;15.80;99.90
35645;DHT22;21764;52.042;6.830;2023-05-10T19:21:24;15.70;99.90
35645;DHT22;21764;52.042;6.830;2023-05-10T19:26:26;15.60;99.90
35645;DHT22;21764;52.042;6.830;2023-05-10T19:31:27;15.60;99.90
35645;DHT22;21764;52.042;6.830;2023-05-10T19:36:28;15.60;99.90
35645;DHT22;21764;52.042;6.830;2023-05-10T19:41:28;15.50;99.90
35645;DHT22;21764;52.042;6.830;2023-05-10T19:46:29;15.50;99.90
35645;DHT22;21764;52.042;6.830;2023-05-10T19:51:30;15.40;99.90
35645;DHT22;21764;52.042;6.830;2023-05-10T19:56:31;15.30;99.90
35645;DHT22;21764;52.042;6.830;2023-05-10T20:01:32;15.30;99.90
35645;DHT22;21764;52.042;6.830;2023-05-10T20:06:32;15.30;99.90
35645;DHT22;21764;52.042;6.830;2023-05-10T20:11:33;15.30;99.90
35645;DHT22;21764;52.042;6.830;2023-05-10T20:16:34;15.20;99.90
35645;DHT22;21764;52.042;6.830;2023-05-10T20:21:34;15.10;99.90
35645;DHT22;21764;52.042;6.830;2023-05-10T20:26:35;15.00;99.90
35645;DHT22;21764;52.042;6.830;2023-05-10T20:31:36;15.00;99.90
35645;DHT22;21764;52.042;6.830;2023-05-10T20:36:36;14.90;99.90
35645;DHT22;21764;52.042;6.830;2023-05-10T20:41:37;14.80;99.90
35645;DHT22;21764;52.042;6.830;2023-05-10T20:46:38;14.60;99.90
35645;DHT22;21764;52.042;6.830;2023-05-10T20:51:39;14.40;99.90
35645;DHT22;21764;52.042;6.830;2023-05-10T20:56:39;14.40;99.90
35645;DHT22;21764;52.042;6.830;2023-05-10T21:01:40;14.30;99.90
35645;DHT22;21764;52.042;6.830;2023-05-10T21:06:42;14.20;99.90
35645;DHT22;21764;52.042;6.830;2023-05-10T21:11:43;14.10;99.90
35645;DHT22;21764;52.042;6.830;2023-05-10T21:16:44;14.10;99.90
35645;DHT22;21764;52.042;6.830;2023-05-10T21:21:45;14.20;99.90
35645;DHT22;21764;52.042;6.830;2023-05-10T21:26:45;14.20;99.90
35645;DHT22;21764;52.042;6.830;2023-05-10T21:31:47;14.30;99.90
35645;DHT22;21764;52.042;6.830;2023-05-10T21:36:48;14.50;99.90
35645;DHT22;21764;52.042;6.830;2023-05-10T21:41:48;14.60;99.90
35645;DHT22;21764;52.042;6.830;2023-05-10T21:46:49;14.80;99.90
35645;DHT22;21764;52.042;6.830;2023-05-10T21:51:50;14.80;99.90
35645;DHT22;21764;52.042;6.830;2023-05-10T21:56:50;14.90;99.90
35645;DHT22;21764;52.042;6.830;2023-05-10T22:01:51;14.90;99.90
35645;DHT22;21764;52.042;6.830;2023-05-10T22:06:51;14.90;99.90
35645;DHT22;21764;52.042;6.830;2023-05-10T22:11:52;15.00;99.90
35645;DHT22;21764;52.042;6.830;2023-05-10T22:16:53;15.00;99.90
35645;DHT22;21764;52.042;6.830;2023-05-10T22:21:53;15.00;99.90
35645;DHT22;21764;52.042;6.830;2023-05-10T22:26:54;14.90;99.90
35645;DHT22;21764;52.042;6.830;2023-05-10T22:31:56;14.90;99.90
35645;DHT22;21764;52.042;6.830;2023-05-10T22:36:56;14.80;99.90
35645;DHT22;21764;52.042;6.830;2023-05-10T22:41:58;14.80;99.90
35645;DHT22;21764;52.042;6.830;2023-05-10T22:46:59;14.70;99.90
35645;DHT22;21764;52.042;6.830;2023-05-10T22:52:00;14.70;99.90
35645;DHT22;21764;52.042;6.830;2023-05-10T22:57:01;14.70;99.90
35645;DHT22;21764;52.042;6.830;2023-05-10T23:02:02;14.70;99.90
35645;DHT22;21764;52.042;6.830;2023-05-10T23:07:02;14.70;99.90
35645;DHT22;21764;52.042;6.830;2023-05-10T23:12:03;14.60;99.90
35645;DHT22;21764;52.042;6.830;2023-05-10T23:17:04;14.60;99.90
35645;DHT22;21764;52.042;6.830;2023-05-10T23:22:04;14.60;99.90
35645;DHT22;21764;52.042;6.830;2023-05-10T23:27:05;14.60;99.90
35645;DHT22;21764;52.042;6.830;2023-05-10T23:32:06;14.60;99.90
35645;DHT22;21764;52.042;6.830;2023-05-10T23:37:06;14.60;99.90
35645;DHT22;21764;52.042;6.830;2023-05-10T23:42:07;14.60;99.90
35645;DHT22;21764;52.042;6.830;2023-05-10T23:47:08;14.60;99.90
35645;DHT22;21764;52.042;6.830;2023-05-10T23:52:08;14.60;99.90
35645;DHT22;21764;52.042;6.830;2023-05-10T23:57:09;14.50;99.90
